Wise River, Montana
Current Conditions -  °F | °C
As of 11:53 PM on Wednesday 22 Oct 2014 (Local Time) from KBTM Reporting Station
Clear Clear  
Wind Chill: 40°   Ceiling: Unl
Heat Index: 40°   Visibility: 10mi
Dew Point: 30°   Wind: 3mph
Humidity: 68%   Direction: 60°ENE
Pressure: 30.02"   Gusts: NA
Location:  45.79°N, 112.95°W
Report Text: KBTM 230553Z AUTO 06003KT 10SM CLR 04/M01 A3002 RMK AO2 SLP158 T00441011 10111 20028 58007
Loading
Personal Weather Stations






























Interactive Weather Map
Tropical Storm Tracking
New forecast layout! Learn more

10-Day Weather Forecast

Advertisements
Track Severe Weather on mobile